Salt Point, LA

11:15 PM CST on March 05, 2015 (GMT -0600)
Williams Memorial | Change Station
CLOSE
Current Station
Airport
Location: Patterson,
Elevation: 10 ft
Nearby Weather Stations
Active Advisory: Freeze Warning

Elev 10 ft 29.71 °N, 91.34 °W | Updated 20 minutes ago

Partly Cloudy
Partly Cloudy
34 °F
Feels Like 24 °F
N
16
Wind Variable Wind from North
Gusts 25 mph

Today
High -- | Low -- °F
--% Chance of Precip.
Yesterday
High -- | Low -- °F
Precip. -- in
6:26 AM 6:07 PM
Full, 100% visible
Pressure 30.48 in
Visibility 10.0 miles
Clouds Clear
Windchill 24 °F
Dew Point 19 °F
Humidity 56%
Rainfall 0.00 in
Snow Depth Not available.
UV 0 out of 12
Pollen 5.20 out of 12
Air Quality Not available.
Flu Activity Not available.
METAR KPTN 060455Z AUTO 01014G22KT 10SM CLR 01/M07 A3048 RMK AO1

More Conditions Fewer Conditions

Pressure 30.48 in
Visibility 10.0 miles
Clouds Clear
Windchill 24 °F
Dew Point 19 °F
Humidity 56%
Rainfall 0.00 in
Snow Depth Not available.
UV 0 out of 12
Pollen 5.20 out of 12
Air Quality Not available.
Flu Activity Not available.
METAR KPTN 060455Z AUTO 01014G22KT 10SM CLR 01/M07 A3048 RMK AO1

More Conditions Fewer Conditions

10-Day Weather Forecast

Almanac

Astronomy

Mar. 05, 2015 Rise Set
Actual Time
Civil Twilight
Nautical Twilight
Astronomical Twilight
Moon
Length of Visible Light
Length of Day
Tomorrow will be .
, % of the Moon is Illuminated

Today's Extremes

State Highs State Lows

Community

WunderPhotos

Upload Photos

1,803,194 photos uploaded!

WunderBlogs® & News

Nearby

Air Quality

  Air Quality AQ Index Pollutant
Not available.

Snow Depth

Station Depth Elevation

Earthquake Activity

City Distance Mag. Time & Date
Minimum magnitude displayed is 2.5.

Coastal Water Temperatures

Place Temperature

Nearby Weather Stations

Freeze Warning
Statement as of 9:25 PM CST on March 05, 2015

... Freeze warning now in effect until 9 am CST Friday...

* temperature... 26 to 32 degrees.

* Impacts... freezing temperatures may harm tender vegetation
that has grown or bloomed over the past few weeks especially
across the coastal parishes and deep southeast Texas.

Precautionary/preparedness actions...

A freeze warning means temperatures between 32 to 26 degrees are
imminent or highly likely. These conditions will kill crops and
other sensitive vegetation.